sensor_id;sensor_type;location;lat;lon;timestamp;P1;durP1;ratioP1;P2;durP2;ratioP2
20731;SDS011;10527;52.124;5.196;2023-04-25T00:00:15;8.77;;;2.60;;
20731;SDS011;10527;52.124;5.196;2023-04-25T00:02:42;9.00;;;2.00;;
20731;SDS011;10527;52.124;5.196;2023-04-25T00:05:10;7.17;;;2.07;;
20731;SDS011;10527;52.124;5.196;2023-04-25T00:07:38;11.27;;;2.87;;
20731;SDS011;10527;52.124;5.196;2023-04-25T00:10:05;9.80;;;2.77;;
20731;SDS011;10527;52.124;5.196;2023-04-25T00:12:34;9.83;;;2.90;;
20731;SDS011;10527;52.124;5.196;2023-04-25T00:15:02;11.40;;;4.00;;
20731;SDS011;10527;52.124;5.196;2023-04-25T00:17:29;8.50;;;2.70;;
20731;SDS011;10527;52.124;5.196;2023-04-25T00:19:57;8.97;;;2.30;;
20731;SDS011;10527;52.124;5.196;2023-04-25T00:22:24;10.37;;;2.67;;
20731;SDS011;10527;52.124;5.196;2023-04-25T00:24:51;7.50;;;2.20;;
20731;SDS011;10527;52.124;5.196;2023-04-25T00:27:19;6.27;;;2.60;;
20731;SDS011;10527;52.124;5.196;2023-04-25T00:29:46;6.77;;;2.57;;
20731;SDS011;10527;52.124;5.196;2023-04-25T00:32:12;8.50;;;2.33;;
20731;SDS011;10527;52.124;5.196;2023-04-25T00:34:39;8.43;;;2.10;;
20731;SDS011;10527;52.124;5.196;2023-04-25T00:37:06;9.47;;;1.80;;
20731;SDS011;10527;52.124;5.196;2023-04-25T00:39:34;6.27;;;2.23;;
20731;SDS011;10527;52.124;5.196;2023-04-25T00:42:01;6.80;;;2.20;;
20731;SDS011;10527;52.124;5.196;2023-04-25T00:44:29;7.87;;;2.20;;
20731;SDS011;10527;52.124;5.196;2023-04-25T00:46:58;4.57;;;2.03;;
20731;SDS011;10527;52.124;5.196;2023-04-25T00:49:27;8.23;;;2.20;;
20731;SDS011;10527;52.124;5.196;2023-04-25T00:51:54;5.83;;;1.90;;
20731;SDS011;10527;52.124;5.196;2023-04-25T00:54:22;7.03;;;2.90;;
20731;SDS011;10527;52.124;5.196;2023-04-25T00:56:49;8.10;;;2.40;;
20731;SDS011;10527;52.124;5.196;2023-04-25T00:59:18;9.13;;;2.70;;
20731;SDS011;10527;52.124;5.196;2023-04-25T01:01:46;8.37;;;2.20;;
20731;SDS011;10527;52.124;5.196;2023-04-25T01:04:14;7.23;;;2.13;;
20731;SDS011;10527;52.124;5.196;2023-04-25T01:06:41;9.97;;;2.70;;
20731;SDS011;10527;52.124;5.196;2023-04-25T01:09:08;7.87;;;2.00;;
20731;SDS011;10527;52.124;5.196;2023-04-25T01:11:35;11.90;;;2.63;;
20731;SDS011;10527;52.124;5.196;2023-04-25T01:14:02;8.20;;;2.77;;
20731;SDS011;10527;52.124;5.196;2023-04-25T01:16:31;6.60;;;2.10;;
20731;SDS011;10527;52.124;5.196;2023-04-25T01:18:59;5.70;;;1.87;;
20731;SDS011;10527;52.124;5.196;2023-04-25T01:21:26;8.57;;;3.30;;
20731;SDS011;10527;52.124;5.196;2023-04-25T01:23:55;8.87;;;2.23;;
20731;SDS011;10527;52.124;5.196;2023-04-25T01:26:23;6.90;;;2.17;;
20731;SDS011;10527;52.124;5.196;2023-04-25T01:28:51;8.67;;;2.53;;
20731;SDS011;10527;52.124;5.196;2023-04-25T01:31:18;7.23;;;2.03;;
20731;SDS011;10527;52.124;5.196;2023-04-25T01:33:47;9.97;;;2.50;;
20731;SDS011;10527;52.124;5.196;2023-04-25T01:36:15;6.73;;;2.40;;
20731;SDS011;10527;52.124;5.196;2023-04-25T01:38:42;6.93;;;2.03;;
20731;SDS011;10527;52.124;5.196;2023-04-25T01:41:10;10.47;;;2.53;;
20731;SDS011;10527;52.124;5.196;2023-04-25T01:43:37;9.57;;;3.33;;
20731;SDS011;10527;52.124;5.196;2023-04-25T01:46:04;8.77;;;1.93;;
20731;SDS011;10527;52.124;5.196;2023-04-25T01:48:31;9.40;;;2.30;;
20731;SDS011;10527;52.124;5.196;2023-04-25T01:50:58;8.40;;;2.30;;
20731;SDS011;10527;52.124;5.196;2023-04-25T01:53:25;7.23;;;1.97;;
20731;SDS011;10527;52.124;5.196;2023-04-25T01:55:52;7.77;;;1.90;;
20731;SDS011;10527;52.124;5.196;2023-04-25T01:58:19;4.43;;;1.73;;
20731;SDS011;10527;52.124;5.196;2023-04-25T02:00:46;5.30;;;2.00;;
20731;SDS011;10527;52.124;5.196;2023-04-25T02:03:13;6.87;;;2.57;;
20731;SDS011;10527;52.124;5.196;2023-04-25T02:05:42;6.63;;;2.40;;
20731;SDS011;10527;52.124;5.196;2023-04-25T02:08:09;6.97;;;2.50;;
20731;SDS011;10527;52.124;5.196;2023-04-25T02:10:36;11.03;;;2.60;;
20731;SDS011;10527;52.124;5.196;2023-04-25T02:13:03;8.30;;;2.50;;
20731;SDS011;10527;52.124;5.196;2023-04-25T02:15:31;8.63;;;3.40;;
20731;SDS011;10527;52.124;5.196;2023-04-25T02:17:58;7.60;;;2.40;;
20731;SDS011;10527;52.124;5.196;2023-04-25T02:20:26;8.33;;;2.40;;
20731;SDS011;10527;52.124;5.196;2023-04-25T02:22:56;7.90;;;3.00;;
20731;SDS011;10527;52.124;5.196;2023-04-25T02:25:22;10.03;;;2.50;;
20731;SDS011;10527;52.124;5.196;2023-04-25T02:27:49;8.30;;;3.67;;
20731;SDS011;10527;52.124;5.196;2023-04-25T02:30:17;9.97;;;2.50;;
20731;SDS011;10527;52.124;5.196;2023-04-25T02:32:44;12.20;;;2.40;;
20731;SDS011;10527;52.124;5.196;2023-04-25T02:35:12;8.43;;;2.70;;
20731;SDS011;10527;52.124;5.196;2023-04-25T02:37:39;4.07;;;2.37;;
20731;SDS011;10527;52.124;5.196;2023-04-25T02:40:06;7.77;;;2.43;;
20731;SDS011;10527;52.124;5.196;2023-04-25T02:42:34;8.60;;;2.80;;
20731;SDS011;10527;52.124;5.196;2023-04-25T02:45:02;6.37;;;2.20;;
20731;SDS011;10527;52.124;5.196;2023-04-25T02:47:29;8.93;;;2.20;;
20731;SDS011;10527;52.124;5.196;2023-04-25T02:49:57;8.70;;;2.43;;
20731;SDS011;10527;52.124;5.196;2023-04-25T02:52:24;8.00;;;2.23;;
20731;SDS011;10527;52.124;5.196;2023-04-25T02:54:51;7.83;;;2.60;;
20731;SDS011;10527;52.124;5.196;2023-04-25T02:57:18;10.63;;;2.93;;
20731;SDS011;10527;52.124;5.196;2023-04-25T02:59:45;5.50;;;2.10;;
20731;SDS011;10527;52.124;5.196;2023-04-25T03:02:11;8.73;;;2.40;;
20731;SDS011;10527;52.124;5.196;2023-04-25T03:04:38;7.13;;;1.90;;
20731;SDS011;10527;52.124;5.196;2023-04-25T03:07:06;7.53;;;1.97;;
20731;SDS011;10527;52.124;5.196;2023-04-25T03:09:33;8.30;;;2.20;;
20731;SDS011;10527;52.124;5.196;2023-04-25T03:12:00;10.00;;;3.00;;
20731;SDS011;10527;52.124;5.196;2023-04-25T03:14:27;7.80;;;2.00;;
20731;SDS011;10527;52.124;5.196;2023-04-25T03:16:54;7.90;;;2.50;;
20731;SDS011;10527;52.124;5.196;2023-04-25T03:19:22;9.57;;;2.30;;
20731;SDS011;10527;52.124;5.196;2023-04-25T03:21:49;7.93;;;2.10;;
20731;SDS011;10527;52.124;5.196;2023-04-25T03:24:16;8.03;;;2.10;;
20731;SDS011;10527;52.124;5.196;2023-04-25T03:26:42;4.33;;;2.00;;
20731;SDS011;10527;52.124;5.196;2023-04-25T03:29:09;11.67;;;2.33;;
20731;SDS011;10527;52.124;5.196;2023-04-25T03:31:36;7.50;;;2.00;;
20731;SDS011;10527;52.124;5.196;2023-04-25T03:34:03;8.33;;;2.23;;
20731;SDS011;10527;52.124;5.196;2023-04-25T03:36:29;6.87;;;1.77;;
20731;SDS011;10527;52.124;5.196;2023-04-25T03:38:56;5.93;;;1.33;;
20731;SDS011;10527;52.124;5.196;2023-04-25T03:41:23;5.07;;;1.57;;
20731;SDS011;10527;52.124;5.196;2023-04-25T03:43:51;6.57;;;1.70;;
20731;SDS011;10527;52.124;5.196;2023-04-25T03:46:18;4.13;;;1.63;;
20731;SDS011;10527;52.124;5.196;2023-04-25T03:48:45;5.63;;;1.50;;
20731;SDS011;10527;52.124;5.196;2023-04-25T03:51:12;4.30;;;1.40;;
20731;SDS011;10527;52.124;5.196;2023-04-25T03:53:38;6.03;;;1.57;;
20731;SDS011;10527;52.124;5.196;2023-04-25T03:56:05;4.67;;;1.70;;
20731;SDS011;10527;52.124;5.196;2023-04-25T03:58:32;4.03;;;1.10;;
20731;SDS011;10527;52.124;5.196;2023-04-25T04:00:59;4.47;;;1.30;;
20731;SDS011;10527;52.124;5.196;2023-04-25T04:03:28;7.43;;;1.33;;
20731;SDS011;10527;52.124;5.196;2023-04-25T04:05:55;2.37;;;1.17;;
20731;SDS011;10527;52.124;5.196;2023-04-25T04:08:22;8.07;;;2.27;;
20731;SDS011;10527;52.124;5.196;2023-04-25T04:10:49;7.17;;;2.00;;
20731;SDS011;10527;52.124;5.196;2023-04-25T04:13:16;5.50;;;2.90;;
20731;SDS011;10527;52.124;5.196;2023-04-25T04:15:43;5.07;;;2.00;;
20731;SDS011;10527;52.124;5.196;2023-04-25T04:18:10;6.87;;;2.20;;
20731;SDS011;10527;52.124;5.196;2023-04-25T04:20:36;7.17;;;1.53;;
20731;SDS011;10527;52.124;5.196;2023-04-25T04:23:03;7.30;;;1.77;;
20731;SDS011;10527;52.124;5.196;2023-04-25T04:25:31;10.40;;;3.20;;
20731;SDS011;10527;52.124;5.196;2023-04-25T04:27:58;5.93;;;1.57;;
20731;SDS011;10527;52.124;5.196;2023-04-25T04:30:25;5.73;;;1.60;;
20731;SDS011;10527;52.124;5.196;2023-04-25T04:32:51;4.33;;;1.50;;
20731;SDS011;10527;52.124;5.196;2023-04-25T04:35:18;4.57;;;1.27;;
20731;SDS011;10527;52.124;5.196;2023-04-25T04:37:45;6.27;;;1.40;;
20731;SDS011;10527;52.124;5.196;2023-04-25T04:40:12;5.53;;;1.53;;
20731;SDS011;10527;52.124;5.196;2023-04-25T04:42:44;4.40;;;1.30;;
20731;SDS011;10527;52.124;5.196;2023-04-25T04:45:14;7.63;;;1.93;;
20731;SDS011;10527;52.124;5.196;2023-04-25T04:47:42;7.73;;;1.30;;
20731;SDS011;10527;52.124;5.196;2023-04-25T04:50:09;6.67;;;1.93;;
20731;SDS011;10527;52.124;5.196;2023-04-25T04:52:38;7.27;;;1.40;;
20731;SDS011;10527;52.124;5.196;2023-04-25T04:55:06;2.87;;;1.40;;
20731;SDS011;10527;52.124;5.196;2023-04-25T04:57:34;5.67;;;1.80;;
20731;SDS011;10527;52.124;5.196;2023-04-25T05:00:01;3.97;;;1.60;;
20731;SDS011;10527;52.124;5.196;2023-04-25T05:02:33;9.30;;;1.97;;
20731;SDS011;10527;52.124;5.196;2023-04-25T05:05:00;14.57;;;2.10;;
20731;SDS011;10527;52.124;5.196;2023-04-25T05:07:28;5.57;;;1.50;;
20731;SDS011;10527;52.124;5.196;2023-04-25T05:09:55;7.53;;;1.50;;
20731;SDS011;10527;52.124;5.196;2023-04-25T05:12:22;8.03;;;1.80;;
20731;SDS011;10527;52.124;5.196;2023-04-25T05:14:49;6.50;;;1.77;;
20731;SDS011;10527;52.124;5.196;2023-04-25T05:17:15;5.57;;;1.70;;
20731;SDS011;10527;52.124;5.196;2023-04-25T05:19:42;7.40;;;2.00;;
20731;SDS011;10527;52.124;5.196;2023-04-25T05:22:09;7.17;;;1.67;;
20731;SDS011;10527;52.124;5.196;2023-04-25T05:24:36;10.37;;;2.80;;
20731;SDS011;10527;52.124;5.196;2023-04-25T05:27:03;5.50;;;1.47;;
20731;SDS011;10527;52.124;5.196;2023-04-25T05:29:31;5.97;;;1.97;;
20731;SDS011;10527;52.124;5.196;2023-04-25T05:31:58;5.40;;;1.37;;
20731;SDS011;10527;52.124;5.196;2023-04-25T05:34:25;4.97;;;1.40;;
20731;SDS011;10527;52.124;5.196;2023-04-25T05:36:52;4.43;;;1.60;;
20731;SDS011;10527;52.124;5.196;2023-04-25T05:39:18;5.63;;;1.07;;
20731;SDS011;10527;52.124;5.196;2023-04-25T05:41:46;3.03;;;1.37;;
20731;SDS011;10527;52.124;5.196;2023-04-25T05:44:12;6.20;;;1.33;;
20731;SDS011;10527;52.124;5.196;2023-04-25T05:46:39;2.83;;;1.13;;
20731;SDS011;10527;52.124;5.196;2023-04-25T05:49:06;4.53;;;1.53;;
20731;SDS011;10527;52.124;5.196;2023-04-25T05:51:33;8.47;;;2.43;;
20731;SDS011;10527;52.124;5.196;2023-04-25T05:53:59;3.40;;;1.07;;
20731;SDS011;10527;52.124;5.196;2023-04-25T05:56:26;4.07;;;1.70;;
20731;SDS011;10527;52.124;5.196;2023-04-25T05:58:53;5.40;;;1.20;;
20731;SDS011;10527;52.124;5.196;2023-04-25T06:01:20;5.40;;;1.50;;
20731;SDS011;10527;52.124;5.196;2023-04-25T06:03:49;5.50;;;1.90;;
20731;SDS011;10527;52.124;5.196;2023-04-25T06:06:18;5.50;;;1.77;;
20731;SDS011;10527;52.124;5.196;2023-04-25T06:08:45;7.80;;;1.50;;
20731;SDS011;10527;52.124;5.196;2023-04-25T06:11:11;8.07;;;2.10;;
20731;SDS011;10527;52.124;5.196;2023-04-25T06:13:38;5.03;;;1.40;;
20731;SDS011;10527;52.124;5.196;2023-04-25T06:16:05;5.30;;;1.63;;
20731;SDS011;10527;52.124;5.196;2023-04-25T06:18:33;2.13;;;1.33;;
20731;SDS011;10527;52.124;5.196;2023-04-25T06:21:00;6.77;;;1.40;;
20731;SDS011;10527;52.124;5.196;2023-04-25T06:23:27;3.83;;;1.27;;
20731;SDS011;10527;52.124;5.196;2023-04-25T06:25:54;7.53;;;1.67;;
20731;SDS011;10527;52.124;5.196;2023-04-25T06:28:21;9.27;;;1.63;;
20731;SDS011;10527;52.124;5.196;2023-04-25T06:30:49;3.73;;;1.43;;
20731;SDS011;10527;52.124;5.196;2023-04-25T06:33:17;6.00;;;1.43;;
20731;SDS011;10527;52.124;5.196;2023-04-25T06:35:43;5.43;;;1.63;;
20731;SDS011;10527;52.124;5.196;2023-04-25T06:38:10;10.90;;;2.37;;
20731;SDS011;10527;52.124;5.196;2023-04-25T06:40:37;7.73;;;1.40;;
20731;SDS011;10527;52.124;5.196;2023-04-25T06:43:04;7.67;;;1.50;;
20731;SDS011;10527;52.124;5.196;2023-04-25T06:45:31;7.97;;;1.70;;
20731;SDS011;10527;52.124;5.196;2023-04-25T06:47:57;4.80;;;1.30;;
20731;SDS011;10527;52.124;5.196;2023-04-25T06:50:24;9.07;;;1.57;;
20731;SDS011;10527;52.124;5.196;2023-04-25T06:52:51;6.67;;;1.60;;
20731;SDS011;10527;52.124;5.196;2023-04-25T06:55:18;8.77;;;1.93;;
20731;SDS011;10527;52.124;5.196;2023-04-25T06:57:45;10.53;;;2.47;;
20731;SDS011;10527;52.124;5.196;2023-04-25T07:00:12;11.37;;;1.83;;
20731;SDS011;10527;52.124;5.196;2023-04-25T07:02:40;9.37;;;2.03;;
20731;SDS011;10527;52.124;5.196;2023-04-25T07:05:08;4.80;;;1.60;;
20731;SDS011;10527;52.124;5.196;2023-04-25T07:07:35;8.20;;;1.53;;
20731;SDS011;10527;52.124;5.196;2023-04-25T07:10:02;8.47;;;1.50;;
20731;SDS011;10527;52.124;5.196;2023-04-25T07:12:30;8.97;;;2.00;;
20731;SDS011;10527;52.124;5.196;2023-04-25T07:14:56;8.90;;;1.87;;
20731;SDS011;10527;52.124;5.196;2023-04-25T07:17:23;12.60;;;1.70;;
20731;SDS011;10527;52.124;5.196;2023-04-25T07:19:50;7.47;;;1.73;;
20731;SDS011;10527;52.124;5.196;2023-04-25T07:22:17;7.40;;;1.10;;
20731;SDS011;10527;52.124;5.196;2023-04-25T07:24:44;10.30;;;1.60;;
20731;SDS011;10527;52.124;5.196;2023-04-25T07:27:14;8.37;;;1.80;;
20731;SDS011;10527;52.124;5.196;2023-04-25T07:29:41;5.73;;;1.57;;
20731;SDS011;10527;52.124;5.196;2023-04-25T07:32:08;6.60;;;1.27;;
20731;SDS011;10527;52.124;5.196;2023-04-25T07:34:36;9.63;;;1.70;;
20731;SDS011;10527;52.124;5.196;2023-04-25T07:37:05;6.87;;;1.70;;
20731;SDS011;10527;52.124;5.196;2023-04-25T07:39:32;3.97;;;1.37;;
20731;SDS011;10527;52.124;5.196;2023-04-25T07:41:59;5.37;;;1.33;;
20731;SDS011;10527;52.124;5.196;2023-04-25T07:44:26;6.13;;;1.50;;
20731;SDS011;10527;52.124;5.196;2023-04-25T07:46:53;3.20;;;1.07;;
20731;SDS011;10527;52.124;5.196;2023-04-25T07:49:20;6.57;;;1.27;;
20731;SDS011;10527;52.124;5.196;2023-04-25T07:51:47;10.63;;;1.63;;
20731;SDS011;10527;52.124;5.196;2023-04-25T07:54:14;8.37;;;1.77;;
20731;SDS011;10527;52.124;5.196;2023-04-25T07:56:44;7.13;;;2.40;;
20731;SDS011;10527;52.124;5.196;2023-04-25T07:59:18;5.97;;;1.20;;
20731;SDS011;10527;52.124;5.196;2023-04-25T08:01:45;4.70;;;1.20;;
20731;SDS011;10527;52.124;5.196;2023-04-25T08:04:12;6.67;;;2.47;;
20731;SDS011;10527;52.124;5.196;2023-04-25T08:06:41;8.07;;;1.43;;
20731;SDS011;10527;52.124;5.196;2023-04-25T08:09:08;4.23;;;1.10;;
20731;SDS011;10527;52.124;5.196;2023-04-25T08:11:36;4.57;;;1.10;;
20731;SDS011;10527;52.124;5.196;2023-04-25T08:14:03;5.40;;;1.10;;
20731;SDS011;10527;52.124;5.196;2023-04-25T08:16:31;6.32;;;1.45;;
20731;SDS011;10527;52.124;5.196;2023-04-25T08:18:59;4.22;;;0.95;;
20731;SDS011;10527;52.124;5.196;2023-04-25T08:21:26;4.63;;;1.17;;
20731;SDS011;10527;52.124;5.196;2023-04-25T08:23:53;5.70;;;1.00;;
20731;SDS011;10527;52.124;5.196;2023-04-25T08:26:20;3.72;;;1.10;;
20731;SDS011;10527;52.124;5.196;2023-04-25T08:28:47;6.10;;;1.33;;
20731;SDS011;10527;52.124;5.196;2023-04-25T08:31:16;4.10;;;1.03;;
20731;SDS011;10527;52.124;5.196;2023-04-25T08:33:43;3.90;;;1.03;;
20731;SDS011;10527;52.124;5.196;2023-04-25T08:36:11;6.63;;;1.13;;
20731;SDS011;10527;52.124;5.196;2023-04-25T08:38:39;2.63;;;0.80;;
20731;SDS011;10527;52.124;5.196;2023-04-25T08:41:06;4.63;;;1.17;;
20731;SDS011;10527;52.124;5.196;2023-04-25T08:43:33;4.63;;;1.33;;
20731;SDS011;10527;52.124;5.196;2023-04-25T08:46:01;4.97;;;1.40;;
20731;SDS011;10527;52.124;5.196;2023-04-25T08:48:31;6.83;;;1.20;;
20731;SDS011;10527;52.124;5.196;2023-04-25T08:51:01;5.57;;;0.90;;
20731;SDS011;10527;52.124;5.196;2023-04-25T08:53:31;3.78;;;0.75;;
20731;SDS011;10527;52.124;5.196;2023-04-25T08:56:01;4.50;;;0.77;;
20731;SDS011;10527;52.124;5.196;2023-04-25T08:58:28;3.53;;;0.93;;
20731;SDS011;10527;52.124;5.196;2023-04-25T09:00:56;3.83;;;1.25;;
20731;SDS011;10527;52.124;5.196;2023-04-25T09:03:23;5.07;;;0.95;;
20731;SDS011;10527;52.124;5.196;2023-04-25T09:05:50;4.80;;;0.70;;
20731;SDS011;10527;52.124;5.196;2023-04-25T09:08:18;2.40;;;0.57;;
20731;SDS011;10527;52.124;5.196;2023-04-25T09:10:45;3.30;;;0.70;;
20731;SDS011;10527;52.124;5.196;2023-04-25T09:13:13;5.82;;;1.83;;
20731;SDS011;10527;52.124;5.196;2023-04-25T09:15:52;2.92;;;0.95;;
20731;SDS011;10527;52.124;5.196;2023-04-25T09:18:24;5.97;;;0.98;;
20731;SDS011;10527;52.124;5.196;2023-04-25T09:21:10;3.60;;;0.88;;
20731;SDS011;10527;52.124;5.196;2023-04-25T09:23:41;4.13;;;1.05;;
20731;SDS011;10527;52.124;5.196;2023-04-25T09:26:14;2.85;;;0.70;;
20731;SDS011;10527;52.124;5.196;2023-04-25T09:28:44;3.90;;;0.80;;
20731;SDS011;10527;52.124;5.196;2023-04-25T09:31:23;3.55;;;1.00;;
20731;SDS011;10527;52.124;5.196;2023-04-25T09:33:52;3.63;;;1.05;;
20731;SDS011;10527;52.124;5.196;2023-04-25T09:36:27;3.03;;;1.10;;
20731;SDS011;10527;52.124;5.196;2023-04-25T09:38:57;3.72;;;1.40;;
20731;SDS011;10527;52.124;5.196;2023-04-25T09:41:27;5.55;;;1.25;;
20731;SDS011;10527;52.124;5.196;2023-04-25T09:43:56;3.45;;;1.20;;
20731;SDS011;10527;52.124;5.196;2023-04-25T09:46:33;3.57;;;0.83;;
20731;SDS011;10527;52.124;5.196;2023-04-25T09:49:07;4.88;;;1.23;;
20731;SDS011;10527;52.124;5.196;2023-04-25T09:51:34;3.55;;;0.90;;
20731;SDS011;10527;52.124;5.196;2023-04-25T09:54:01;3.77;;;1.17;;
20731;SDS011;10527;52.124;5.196;2023-04-25T09:56:29;2.93;;;0.97;;
20731;SDS011;10527;52.124;5.196;2023-04-25T09:59:03;5.37;;;1.20;;
20731;SDS011;10527;52.124;5.196;2023-04-25T10:01:31;6.43;;;0.90;;
20731;SDS011;10527;52.124;5.196;2023-04-25T10:03:59;4.45;;;1.23;;
20731;SDS011;10527;52.124;5.196;2023-04-25T10:06:33;4.15;;;1.10;;
20731;SDS011;10527;52.124;5.196;2023-04-25T10:09:01;3.47;;;0.90;;
20731;SDS011;10527;52.124;5.196;2023-04-25T10:11:30;4.28;;;0.98;;
20731;SDS011;10527;52.124;5.196;2023-04-25T10:13:58;6.73;;;1.20;;
20731;SDS011;10527;52.124;5.196;2023-04-25T10:16:27;2.65;;;1.33;;
20731;SDS011;10527;52.124;5.196;2023-04-25T10:18:55;5.20;;;1.10;;
20731;SDS011;10527;52.124;5.196;2023-04-25T10:21:22;3.03;;;1.30;;
20731;SDS011;10527;52.124;5.196;2023-04-25T10:23:53;5.97;;;0.77;;
20731;SDS011;10527;52.124;5.196;2023-04-25T10:26:22;3.70;;;1.67;;
20731;SDS011;10527;52.124;5.196;2023-04-25T10:28:54;2.10;;;1.00;;
20731;SDS011;10527;52.124;5.196;2023-04-25T10:31:23;2.05;;;1.02;;
20731;SDS011;10527;52.124;5.196;2023-04-25T10:33:50;3.08;;;1.02;;
20731;SDS011;10527;52.124;5.196;2023-04-25T10:36:18;2.97;;;0.70;;
20731;SDS011;10527;52.124;5.196;2023-04-25T10:38:49;2.92;;;1.15;;
20731;SDS011;10527;52.124;5.196;2023-04-25T10:41:18;4.43;;;1.02;;
20731;SDS011;10527;52.124;5.196;2023-04-25T10:43:46;5.25;;;0.90;;
20731;SDS011;10527;52.124;5.196;2023-04-25T10:46:16;3.67;;;1.10;;
20731;SDS011;10527;52.124;5.196;2023-04-25T10:49:02;5.18;;;1.08;;
20731;SDS011;10527;52.124;5.196;2023-04-25T10:51:33;5.03;;;0.85;;
20731;SDS011;10527;52.124;5.196;2023-04-25T10:54:21;3.00;;;0.80;;
20731;SDS011;10527;52.124;5.196;2023-04-25T10:56:52;2.92;;;0.80;;
20731;SDS011;10527;52.124;5.196;2023-04-25T10:59:19;3.47;;;0.80;;
20731;SDS011;10527;52.124;5.196;2023-04-25T11:01:51;4.53;;;0.90;;
20731;SDS011;10527;52.124;5.196;2023-04-25T11:04:23;2.33;;;0.70;;
20731;SDS011;10527;52.124;5.196;2023-04-25T11:07:00;3.35;;;0.88;;
20731;SDS011;10527;52.124;5.196;2023-04-25T11:09:34;3.53;;;0.95;;
20731;SDS011;10527;52.124;5.196;2023-04-25T11:12:07;2.67;;;0.95;;
20731;SDS011;10527;52.124;5.196;2023-04-25T11:14:58;3.08;;;1.10;;
20731;SDS011;10527;52.124;5.196;2023-04-25T11:17:27;5.40;;;1.00;;
20731;SDS011;10527;52.124;5.196;2023-04-25T11:19:55;4.47;;;1.93;;
20731;SDS011;10527;52.124;5.196;2023-04-25T11:22:22;2.97;;;1.20;;
20731;SDS011;10527;52.124;5.196;2023-04-25T11:24:49;4.17;;;1.43;;
20731;SDS011;10527;52.124;5.196;2023-04-25T11:27:17;2.28;;;0.90;;
20731;SDS011;10527;52.124;5.196;2023-04-25T11:29:44;4.45;;;1.00;;
20731;SDS011;10527;52.124;5.196;2023-04-25T11:32:15;5.43;;;0.82;;
20731;SDS011;10527;52.124;5.196;2023-04-25T11:34:47;2.92;;;1.02;;
20731;SDS011;10527;52.124;5.196;2023-04-25T11:37:14;4.23;;;1.17;;
20731;SDS011;10527;52.124;5.196;2023-04-25T11:39:44;3.63;;;0.85;;
20731;SDS011;10527;52.124;5.196;2023-04-25T11:42:14;3.83;;;1.00;;
20731;SDS011;10527;52.124;5.196;2023-04-25T11:44:41;4.23;;;0.97;;
20731;SDS011;10527;52.124;5.196;2023-04-25T11:47:08;5.32;;;1.38;;
20731;SDS011;10527;52.124;5.196;2023-04-25T11:49:35;4.20;;;1.00;;
20731;SDS011;10527;52.124;5.196;2023-04-25T11:52:02;2.83;;;0.75;;
20731;SDS011;10527;52.124;5.196;2023-04-25T11:54:36;2.70;;;0.70;;
20731;SDS011;10527;52.124;5.196;2023-04-25T11:57:04;4.47;;;1.45;;
20731;SDS011;10527;52.124;5.196;2023-04-25T11:59:30;4.13;;;0.70;;
20731;SDS011;10527;52.124;5.196;2023-04-25T12:01:57;2.03;;;0.80;;
20731;SDS011;10527;52.124;5.196;2023-04-25T12:04:24;3.30;;;1.00;;
20731;SDS011;10527;52.124;5.196;2023-04-25T12:06:52;2.57;;;1.57;;
20731;SDS011;10527;52.124;5.196;2023-04-25T12:09:31;3.67;;;0.67;;
20731;SDS011;10527;52.124;5.196;2023-04-25T12:12:00;2.27;;;0.90;;
20731;SDS011;10527;52.124;5.196;2023-04-25T12:14:33;4.47;;;1.57;;
20731;SDS011;10527;52.124;5.196;2023-04-25T12:17:03;4.53;;;1.33;;
20731;SDS011;10527;52.124;5.196;2023-04-25T12:19:35;3.17;;;1.40;;
20731;SDS011;10527;52.124;5.196;2023-04-25T12:22:20;3.27;;;1.90;;
20731;SDS011;10527;52.124;5.196;2023-04-25T12:24:50;1.73;;;0.90;;
20731;SDS011;10527;52.124;5.196;2023-04-25T12:27:19;2.10;;;0.90;;
20731;SDS011;10527;52.124;5.196;2023-04-25T12:29:55;3.57;;;1.27;;
20731;SDS011;10527;52.124;5.196;2023-04-25T12:32:39;3.47;;;1.67;;
20731;SDS011;10527;52.124;5.196;2023-04-25T12:35:06;2.28;;;1.10;;
20731;SDS011;10527;52.124;5.196;2023-04-25T12:37:33;5.10;;;1.20;;
20731;SDS011;10527;52.124;5.196;2023-04-25T12:40:03;1.90;;;1.17;;
20731;SDS011;10527;52.124;5.196;2023-04-25T12:42:32;2.40;;;1.25;;
20731;SDS011;10527;52.124;5.196;2023-04-25T12:45:00;2.33;;;0.90;;
20731;SDS011;10527;52.124;5.196;2023-04-25T12:47:27;4.35;;;1.48;;
20731;SDS011;10527;52.124;5.196;2023-04-25T12:49:54;2.42;;;0.82;;
20731;SDS011;10527;52.124;5.196;2023-04-25T12:52:21;2.60;;;0.80;;
20731;SDS011;10527;52.124;5.196;2023-04-25T12:54:47;3.47;;;1.15;;
20731;SDS011;10527;52.124;5.196;2023-04-25T12:57:14;2.78;;;1.00;;
20731;SDS011;10527;52.124;5.196;2023-04-25T12:59:41;4.28;;;1.10;;
20731;SDS011;10527;52.124;5.196;2023-04-25T13:02:08;2.92;;;1.00;;
20731;SDS011;10527;52.124;5.196;2023-04-25T13:04:35;5.60;;;1.00;;
20731;SDS011;10527;52.124;5.196;2023-04-25T13:07:02;3.13;;;0.93;;
20731;SDS011;10527;52.124;5.196;2023-04-25T13:09:29;1.75;;;0.80;;
20731;SDS011;10527;52.124;5.196;2023-04-25T13:11:56;2.22;;;0.90;;
20731;SDS011;10527;52.124;5.196;2023-04-25T13:14:25;3.45;;;0.63;;
20731;SDS011;10527;52.124;5.196;2023-04-25T13:16:52;1.90;;;0.80;;
20731;SDS011;10527;52.124;5.196;2023-04-25T13:19:20;2.28;;;0.80;;
20731;SDS011;10527;52.124;5.196;2023-04-25T13:21:47;2.70;;;0.82;;
20731;SDS011;10527;52.124;5.196;2023-04-25T13:24:14;3.40;;;1.55;;
20731;SDS011;10527;52.124;5.196;2023-04-25T13:26:41;4.10;;;1.00;;
20731;SDS011;10527;52.124;5.196;2023-04-25T13:29:08;1.95;;;0.80;;
20731;SDS011;10527;52.124;5.196;2023-04-25T13:31:35;3.63;;;0.93;;
20731;SDS011;10527;52.124;5.196;2023-04-25T13:34:02;4.50;;;0.73;;
20731;SDS011;10527;52.124;5.196;2023-04-25T13:36:29;2.47;;;0.93;;
20731;SDS011;10527;52.124;5.196;2023-04-25T13:38:58;3.40;;;1.00;;
20731;SDS011;10527;52.124;5.196;2023-04-25T13:41:25;4.15;;;1.05;;
20731;SDS011;10527;52.124;5.196;2023-04-25T13:43:51;3.28;;;0.90;;
20731;SDS011;10527;52.124;5.196;2023-04-25T13:46:19;2.97;;;0.90;;
20731;SDS011;10527;52.124;5.196;2023-04-25T13:49:06;4.65;;;1.00;;
20731;SDS011;10527;52.124;5.196;2023-04-25T13:51:39;1.73;;;0.73;;
20731;SDS011;10527;52.124;5.196;2023-04-25T13:54:06;3.90;;;0.82;;
20731;SDS011;10527;52.124;5.196;2023-04-25T13:56:33;3.15;;;0.70;;
20731;SDS011;10527;52.124;5.196;2023-04-25T13:59:00;2.38;;;0.80;;
20731;SDS011;10527;52.124;5.196;2023-04-25T14:01:27;4.45;;;0.90;;
20731;SDS011;10527;52.124;5.196;2023-04-25T14:03:57;4.97;;;1.00;;
20731;SDS011;10527;52.124;5.196;2023-04-25T14:06:24;2.05;;;1.00;;
20731;SDS011;10527;52.124;5.196;2023-04-25T14:08:52;5.90;;;1.10;;
20731;SDS011;10527;52.124;5.196;2023-04-25T14:11:20;6.05;;;1.00;;
20731;SDS011;10527;52.124;5.196;2023-04-25T14:13:47;3.28;;;0.90;;
20731;SDS011;10527;52.124;5.196;2023-04-25T14:16:15;6.80;;;1.45;;
20731;SDS011;10527;52.124;5.196;2023-04-25T14:18:43;4.85;;;1.00;;
20731;SDS011;10527;52.124;5.196;2023-04-25T14:21:10;5.38;;;0.85;;
20731;SDS011;10527;52.124;5.196;2023-04-25T14:23:37;5.05;;;0.90;;
20731;SDS011;10527;52.124;5.196;2023-04-25T14:26:03;3.20;;;1.00;;
20731;SDS011;10527;52.124;5.196;2023-04-25T14:28:31;6.38;;;1.10;;
20731;SDS011;10527;52.124;5.196;2023-04-25T14:30:58;3.90;;;1.15;;
20731;SDS011;10527;52.124;5.196;2023-04-25T14:33:25;6.88;;;1.77;;
20731;SDS011;10527;52.124;5.196;2023-04-25T14:35:52;4.28;;;1.10;;
20731;SDS011;10527;52.124;5.196;2023-04-25T14:38:19;6.57;;;0.90;;
20731;SDS011;10527;52.124;5.196;2023-04-25T14:40:49;4.88;;;1.20;;
20731;SDS011;10527;52.124;5.196;2023-04-25T14:43:20;5.60;;;1.23;;
20731;SDS011;10527;52.124;5.196;2023-04-25T14:45:46;4.10;;;1.02;;
20731;SDS011;10527;52.124;5.196;2023-04-25T14:48:13;6.95;;;0.90;;
20731;SDS011;10527;52.124;5.196;2023-04-25T14:50:41;4.57;;;1.10;;
20731;SDS011;10527;52.124;5.196;2023-04-25T14:53:08;2.25;;;0.95;;